sensor_id;sensor_type;location;lat;lon;timestamp;pressure;altitude;pressure_sealevel;temperature
74539;BMP180;66042;51.090;-115.340;2023-03-14T00:02:17;84732.40;;;4.92
74539;BMP180;66042;51.090;-115.340;2023-03-14T00:04:44;84740.20;;;4.90
74539;BMP180;66042;51.090;-115.340;2023-03-14T00:07:12;84729.20;;;4.82
74539;BMP180;66042;51.090;-115.340;2023-03-14T00:09:39;84725.40;;;4.80
74539;BMP180;66042;51.090;-115.340;2023-03-14T00:12:07;84722.80;;;4.80
74539;BMP180;66042;51.090;-115.340;2023-03-14T00:14:34;84720.20;;;4.70
74539;BMP180;66042;51.090;-115.340;2023-03-14T00:17:01;84719.40;;;4.70
74539;BMP180;66042;51.090;-115.340;2023-03-14T00:19:28;84723.20;;;4.60
74539;BMP180;66042;51.090;-115.340;2023-03-14T00:21:55;84720.80;;;4.60
74539;BMP180;66042;51.090;-115.340;2023-03-14T00:24:22;84714.20;;;4.60
74539;BMP180;66042;51.090;-115.340;2023-03-14T00:26:50;84707.00;;;4.50
74539;BMP180;66042;51.090;-115.340;2023-03-14T00:29:17;84712.60;;;4.40
74539;BMP180;66042;51.090;-115.340;2023-03-14T00:31:44;84711.60;;;4.40
74539;BMP180;66042;51.090;-115.340;2023-03-14T00:34:12;84705.80;;;4.30
74539;BMP180;66042;51.090;-115.340;2023-03-14T00:36:39;84705.20;;;4.30
74539;BMP180;66042;51.090;-115.340;2023-03-14T00:39:06;84708.60;;;4.30
74539;BMP180;66042;51.090;-115.340;2023-03-14T00:41:33;84706.60;;;4.20
74539;BMP180;66042;51.090;-115.340;2023-03-14T00:44:00;84712.80;;;4.20
74539;BMP180;66042;51.090;-115.340;2023-03-14T00:46:27;84705.40;;;4.20
74539;BMP180;66042;51.090;-115.340;2023-03-14T00:48:54;84707.80;;;4.10
74539;BMP180;66042;51.090;-115.340;2023-03-14T00:51:21;84702.00;;;4.10
74539;BMP180;66042;51.090;-115.340;2023-03-14T00:53:48;84698.80;;;4.10
74539;BMP180;66042;51.090;-115.340;2023-03-14T00:56:15;84697.40;;;4.10
74539;BMP180;66042;51.090;-115.340;2023-03-14T00:58:43;84695.00;;;4.08
74539;BMP180;66042;51.090;-115.340;2023-03-14T01:01:16;84690.60;;;4.00
74539;BMP180;66042;51.090;-115.340;2023-03-14T01:03:45;84687.00;;;3.90
74539;BMP180;66042;51.090;-115.340;2023-03-14T01:06:20;84690.40;;;3.90
74539;BMP180;66042;51.090;-115.340;2023-03-14T01:08:48;84687.40;;;3.80
74539;BMP180;66042;51.090;-115.340;2023-03-14T01:11:30;84685.40;;;3.80
74539;BMP180;66042;51.090;-115.340;2023-03-14T01:13:58;84675.00;;;3.70
74539;BMP180;66042;51.090;-115.340;2023-03-14T01:16:32;84678.00;;;3.70
74539;BMP180;66042;51.090;-115.340;2023-03-14T01:18:59;84677.40;;;3.70
74539;BMP180;66042;51.090;-115.340;2023-03-14T01:21:30;84668.60;;;3.70
74539;BMP180;66042;51.090;-115.340;2023-03-14T01:24:00;84667.60;;;3.70
74539;BMP180;66042;51.090;-115.340;2023-03-14T01:26:30;84662.60;;;3.70
74539;BMP180;66042;51.090;-115.340;2023-03-14T01:28:58;84663.80;;;3.70
74539;BMP180;66042;51.090;-115.340;2023-03-14T01:31:26;84665.80;;;3.68
74539;BMP180;66042;51.090;-115.340;2023-03-14T01:33:54;84666.20;;;3.60
74539;BMP180;66042;51.090;-115.340;2023-03-14T01:36:21;84665.20;;;3.58
74539;BMP180;66042;51.090;-115.340;2023-03-14T01:38:48;84662.80;;;3.60
74539;BMP180;66042;51.090;-115.340;2023-03-14T01:41:20;84659.80;;;3.50
74539;BMP180;66042;51.090;-115.340;2023-03-14T01:43:48;84655.20;;;3.50
74539;BMP180;66042;51.090;-115.340;2023-03-14T01:49:06;84655.20;;;3.48
74539;BMP180;66042;51.090;-115.340;2023-03-14T01:56:57;84639.20;;;3.40
74539;BMP180;66042;51.090;-115.340;2023-03-14T01:59:25;84640.40;;;3.38
74539;BMP180;66042;51.090;-115.340;2023-03-14T02:01:58;84646.40;;;3.30
74539;BMP180;66042;51.090;-115.340;2023-03-14T02:04:30;84646.60;;;3.20
74539;BMP180;66042;51.090;-115.340;2023-03-14T02:10:06;84638.60;;;3.10
74539;BMP180;66042;51.090;-115.340;2023-03-14T02:12:35;84637.60;;;3.00
74539;BMP180;66042;51.090;-115.340;2023-03-14T02:15:03;84636.00;;;3.00
74539;BMP180;66042;51.090;-115.340;2023-03-14T02:17:30;84635.20;;;3.00
74539;BMP180;66042;51.090;-115.340;2023-03-14T02:20:17;84636.20;;;3.00
74539;BMP180;66042;51.090;-115.340;2023-03-14T02:22:52;84630.40;;;3.00
74539;BMP180;66042;51.090;-115.340;2023-03-14T02:25:48;84630.00;;;3.08
74539;BMP180;66042;51.090;-115.340;2023-03-14T02:28:17;84635.40;;;3.10
74539;BMP180;66042;51.090;-115.340;2023-03-14T02:30:45;84626.60;;;3.10
74539;BMP180;66042;51.090;-115.340;2023-03-14T02:33:16;84625.60;;;3.00
74539;BMP180;66042;51.090;-115.340;2023-03-14T02:36:09;84629.40;;;3.00
74539;BMP180;66042;51.090;-115.340;2023-03-14T02:38:55;84627.40;;;3.00
74539;BMP180;66042;51.090;-115.340;2023-03-14T02:41:22;84629.60;;;3.00
74539;BMP180;66042;51.090;-115.340;2023-03-14T02:43:49;84625.80;;;2.90
74539;BMP180;66042;51.090;-115.340;2023-03-14T02:46:21;84628.00;;;2.90
74539;BMP180;66042;51.090;-115.340;2023-03-14T02:48:56;84622.60;;;2.80
74539;BMP180;66042;51.090;-115.340;2023-03-14T02:51:26;84620.00;;;2.80
74539;BMP180;66042;51.090;-115.340;2023-03-14T02:53:54;84621.80;;;2.80
74539;BMP180;66042;51.090;-115.340;2023-03-14T02:56:20;84620.00;;;2.80
74539;BMP180;66042;51.090;-115.340;2023-03-14T02:58:47;84619.00;;;2.74
74539;BMP180;66042;51.090;-115.340;2023-03-14T03:01:14;84613.20;;;2.70
74539;BMP180;66042;51.090;-115.340;2023-03-14T03:03:41;84604.80;;;2.70
74539;BMP180;66042;51.090;-115.340;2023-03-14T03:06:08;84603.60;;;2.68
74539;BMP180;66042;51.090;-115.340;2023-03-14T03:08:35;84599.60;;;2.68
74539;BMP180;66042;51.090;-115.340;2023-03-14T03:11:03;84599.00;;;2.70
74539;BMP180;66042;51.090;-115.340;2023-03-14T03:13:30;84595.20;;;2.66
74539;BMP180;66042;51.090;-115.340;2023-03-14T03:15:57;84590.80;;;2.70
74539;BMP180;66042;51.090;-115.340;2023-03-14T03:18:24;84595.40;;;2.70
74539;BMP180;66042;51.090;-115.340;2023-03-14T03:20:50;84590.00;;;2.70
74539;BMP180;66042;51.090;-115.340;2023-03-14T03:23:17;84591.20;;;2.70
74539;BMP180;66042;51.090;-115.340;2023-03-14T03:25:49;84591.60;;;2.64
74539;BMP180;66042;51.090;-115.340;2023-03-14T03:28:17;84583.60;;;2.60
74539;BMP180;66042;51.090;-115.340;2023-03-14T03:30:45;84578.40;;;2.60
74539;BMP180;66042;51.090;-115.340;2023-03-14T03:33:12;84570.80;;;2.60
74539;BMP180;66042;51.090;-115.340;2023-03-14T03:35:46;84566.00;;;2.50
74539;BMP180;66042;51.090;-115.340;2023-03-14T03:38:14;84555.20;;;2.50
74539;BMP180;66042;51.090;-115.340;2023-03-14T03:40:42;84552.00;;;2.48
74539;BMP180;66042;51.090;-115.340;2023-03-14T03:43:09;84553.20;;;2.40
74539;BMP180;66042;51.090;-115.340;2023-03-14T03:45:36;84556.80;;;2.40
74539;BMP180;66042;51.090;-115.340;2023-03-14T03:48:03;84566.60;;;2.30
74539;BMP180;66042;51.090;-115.340;2023-03-14T03:50:30;84563.00;;;2.30
74539;BMP180;66042;51.090;-115.340;2023-03-14T03:52:57;84557.00;;;2.20
74539;BMP180;66042;51.090;-115.340;2023-03-14T03:55:24;84550.20;;;2.20
74539;BMP180;66042;51.090;-115.340;2023-03-14T03:57:52;84554.40;;;2.22
74539;BMP180;66042;51.090;-115.340;2023-03-14T04:00:19;84549.60;;;2.30
74539;BMP180;66042;51.090;-115.340;2023-03-14T04:02:46;84548.40;;;2.30
74539;BMP180;66042;51.090;-115.340;2023-03-14T04:05:14;84544.80;;;2.30
74539;BMP180;66042;51.090;-115.340;2023-03-14T04:07:40;84543.00;;;2.30
74539;BMP180;66042;51.090;-115.340;2023-03-14T04:10:08;84542.60;;;2.30
74539;BMP180;66042;51.090;-115.340;2023-03-14T04:12:36;84537.20;;;2.30
74539;BMP180;66042;51.090;-115.340;2023-03-14T04:15:03;84544.00;;;2.20
74539;BMP180;66042;51.090;-115.340;2023-03-14T04:17:30;84552.80;;;2.20
74539;BMP180;66042;51.090;-115.340;2023-03-14T04:19:57;84553.60;;;2.20
74539;BMP180;66042;51.090;-115.340;2023-03-14T04:22:23;84562.20;;;2.18
74539;BMP180;66042;51.090;-115.340;2023-03-14T04:24:51;84562.80;;;2.10
74539;BMP180;66042;51.090;-115.340;2023-03-14T04:27:17;84559.00;;;2.10
74539;BMP180;66042;51.090;-115.340;2023-03-14T04:29:44;84556.60;;;2.10
74539;BMP180;66042;51.090;-115.340;2023-03-14T04:32:11;84557.20;;;2.00
74539;BMP180;66042;51.090;-115.340;2023-03-14T04:34:38;84554.40;;;2.00
74539;BMP180;66042;51.090;-115.340;2023-03-14T04:37:05;84548.80;;;1.94
74539;BMP180;66042;51.090;-115.340;2023-03-14T04:39:33;84541.40;;;1.90
74539;BMP180;66042;51.090;-115.340;2023-03-14T04:42:00;84537.80;;;1.86
74539;BMP180;66042;51.090;-115.340;2023-03-14T04:44:27;84541.80;;;1.84
74539;BMP180;66042;51.090;-115.340;2023-03-14T04:46:54;84537.60;;;1.90
74539;BMP180;66042;51.090;-115.340;2023-03-14T04:49:21;84541.60;;;1.90
74539;BMP180;66042;51.090;-115.340;2023-03-14T04:51:49;84538.80;;;1.90
74539;BMP180;66042;51.090;-115.340;2023-03-14T04:54:18;84540.80;;;1.90
74539;BMP180;66042;51.090;-115.340;2023-03-14T04:56:44;84527.20;;;1.90
74539;BMP180;66042;51.090;-115.340;2023-03-14T04:59:11;84525.00;;;1.90
74539;BMP180;66042;51.090;-115.340;2023-03-14T05:01:38;84530.80;;;1.90
74539;BMP180;66042;51.090;-115.340;2023-03-14T05:04:05;84532.80;;;1.90
74539;BMP180;66042;51.090;-115.340;2023-03-14T05:06:32;84534.40;;;1.90
74539;BMP180;66042;51.090;-115.340;2023-03-14T05:09:00;84526.20;;;1.86
74539;BMP180;66042;51.090;-115.340;2023-03-14T05:11:27;84520.20;;;1.80
74539;BMP180;66042;51.090;-115.340;2023-03-14T05:13:54;84513.40;;;1.74
74539;BMP180;66042;51.090;-115.340;2023-03-14T05:16:21;84504.20;;;1.70
74539;BMP180;66042;51.090;-115.340;2023-03-14T05:18:48;84502.40;;;1.70
74539;BMP180;66042;51.090;-115.340;2023-03-14T05:21:15;84499.60;;;1.70
74539;BMP180;66042;51.090;-115.340;2023-03-14T05:23:42;84502.40;;;1.70
74539;BMP180;66042;51.090;-115.340;2023-03-14T05:26:09;84515.60;;;1.70
74539;BMP180;66042;51.090;-115.340;2023-03-14T05:28:36;84516.20;;;1.64
74539;BMP180;66042;51.090;-115.340;2023-03-14T05:31:07;84510.00;;;1.60
74539;BMP180;66042;51.090;-115.340;2023-03-14T05:33:34;84508.20;;;1.60
74539;BMP180;66042;51.090;-115.340;2023-03-14T05:36:02;84489.20;;;1.62
74539;BMP180;66042;51.090;-115.340;2023-03-14T05:38:29;84483.80;;;1.68
74539;BMP180;66042;51.090;-115.340;2023-03-14T05:40:56;84491.20;;;1.66
74539;BMP180;66042;51.090;-115.340;2023-03-14T05:43:23;84506.00;;;1.60
74539;BMP180;66042;51.090;-115.340;2023-03-14T05:45:50;84514.60;;;1.60
74539;BMP180;66042;51.090;-115.340;2023-03-14T05:48:17;84511.20;;;1.50
74539;BMP180;66042;51.090;-115.340;2023-03-14T05:50:45;84530.00;;;1.48
74539;BMP180;66042;51.090;-115.340;2023-03-14T05:53:12;84524.60;;;1.40
74539;BMP180;66042;51.090;-115.340;2023-03-14T05:55:40;84472.20;;;1.40
74539;BMP180;66042;51.090;-115.340;2023-03-14T05:58:07;84493.20;;;1.40
74539;BMP180;66042;51.090;-115.340;2023-03-14T06:00:34;84520.60;;;1.40
74539;BMP180;66042;51.090;-115.340;2023-03-14T06:03:01;84512.40;;;1.40
74539;BMP180;66042;51.090;-115.340;2023-03-14T06:05:28;84553.20;;;1.40
74539;BMP180;66042;51.090;-115.340;2023-03-14T06:07:55;84574.00;;;1.40
74539;BMP180;66042;51.090;-115.340;2023-03-14T06:10:22;84564.00;;;1.40
74539;BMP180;66042;51.090;-115.340;2023-03-14T06:12:49;84524.20;;;1.40
74539;BMP180;66042;51.090;-115.340;2023-03-14T06:15:16;84491.40;;;1.40
74539;BMP180;66042;51.090;-115.340;2023-03-14T06:17:43;84485.20;;;1.40
74539;BMP180;66042;51.090;-115.340;2023-03-14T06:20:11;84515.60;;;1.40
74539;BMP180;66042;51.090;-115.340;2023-03-14T06:22:38;84503.40;;;1.40
74539;BMP180;66042;51.090;-115.340;2023-03-14T06:25:08;84511.60;;;1.40
74539;BMP180;66042;51.090;-115.340;2023-03-14T06:27:35;84516.40;;;1.40
74539;BMP180;66042;51.090;-115.340;2023-03-14T06:30:02;84526.60;;;1.40
74539;BMP180;66042;51.090;-115.340;2023-03-14T06:32:29;84546.00;;;1.32
74539;BMP180;66042;51.090;-115.340;2023-03-14T06:34:57;84527.00;;;1.30
74539;BMP180;66042;51.090;-115.340;2023-03-14T06:37:29;84537.60;;;1.30
74539;BMP180;66042;51.090;-115.340;2023-03-14T06:39:56;84532.80;;;1.30
74539;BMP180;66042;51.090;-115.340;2023-03-14T06:42:23;84506.40;;;1.30
74539;BMP180;66042;51.090;-115.340;2023-03-14T06:44:50;84501.80;;;1.34
74539;BMP180;66042;51.090;-115.340;2023-03-14T06:47:17;84518.60;;;1.40
74539;BMP180;66042;51.090;-115.340;2023-03-14T06:49:44;84531.40;;;1.34
74539;BMP180;66042;51.090;-115.340;2023-03-14T06:52:11;84530.80;;;1.30
74539;BMP180;66042;51.090;-115.340;2023-03-14T06:54:38;84520.80;;;1.30
74539;BMP180;66042;51.090;-115.340;2023-03-14T06:57:05;84523.00;;;1.30
74539;BMP180;66042;51.090;-115.340;2023-03-14T06:59:32;84508.40;;;1.30
74539;BMP180;66042;51.090;-115.340;2023-03-14T07:01:59;84497.60;;;1.30
74539;BMP180;66042;51.090;-115.340;2023-03-14T07:04:27;84492.00;;;1.30
74539;BMP180;66042;51.090;-115.340;2023-03-14T07:06:54;84483.60;;;1.30
74539;BMP180;66042;51.090;-115.340;2023-03-14T07:09:21;84487.40;;;1.22
74539;BMP180;66042;51.090;-115.340;2023-03-14T07:11:48;84494.40;;;1.20
74539;BMP180;66042;51.090;-115.340;2023-03-14T07:14:16;84499.60;;;1.20
74539;BMP180;66042;51.090;-115.340;2023-03-14T07:16:43;84493.80;;;1.20
74539;BMP180;66042;51.090;-115.340;2023-03-14T07:19:10;84502.40;;;1.20
74539;BMP180;66042;51.090;-115.340;2023-03-14T07:21:37;84518.00;;;1.26
74539;BMP180;66042;51.090;-115.340;2023-03-14T07:24:04;84512.20;;;1.20
74539;BMP180;66042;51.090;-115.340;2023-03-14T07:26:31;84507.00;;;1.24
74539;BMP180;66042;51.090;-115.340;2023-03-14T07:28:58;84506.00;;;1.20
74539;BMP180;66042;51.090;-115.340;2023-03-14T07:31:25;84502.60;;;1.20
74539;BMP180;66042;51.090;-115.340;2023-03-14T07:33:52;84502.40;;;1.22
74539;BMP180;66042;51.090;-115.340;2023-03-14T07:36:20;84497.80;;;1.30
74539;BMP180;66042;51.090;-115.340;2023-03-14T07:38:47;84489.60;;;1.30
74539;BMP180;66042;51.090;-115.340;2023-03-14T07:41:15;84485.40;;;1.30
74539;BMP180;66042;51.090;-115.340;2023-03-14T07:43:42;84482.80;;;1.30
74539;BMP180;66042;51.090;-115.340;2023-03-14T07:46:09;84496.80;;;1.20
74539;BMP180;66042;51.090;-115.340;2023-03-14T07:48:36;84468.60;;;1.18
74539;BMP180;66042;51.090;-115.340;2023-03-14T07:51:03;84488.60;;;1.10
74539;BMP180;66042;51.090;-115.340;2023-03-14T07:53:30;84482.80;;;1.10
74539;BMP180;66042;51.090;-115.340;2023-03-14T07:55:57;84523.20;;;1.10
74539;BMP180;66042;51.090;-115.340;2023-03-14T07:58:24;84487.60;;;1.10
74539;BMP180;66042;51.090;-115.340;2023-03-14T08:00:52;84539.40;;;1.10
74539;BMP180;66042;51.090;-115.340;2023-03-14T08:03:20;84528.60;;;1.10
74539;BMP180;66042;51.090;-115.340;2023-03-14T08:05:50;84523.00;;;1.10
74539;BMP180;66042;51.090;-115.340;2023-03-14T08:08:18;84535.00;;;1.10
74539;BMP180;66042;51.090;-115.340;2023-03-14T08:10:46;84549.00;;;1.10
74539;BMP180;66042;51.090;-115.340;2023-03-14T08:13:13;84542.60;;;1.10
74539;BMP180;66042;51.090;-115.340;2023-03-14T08:15:40;84536.40;;;1.10
74539;BMP180;66042;51.090;-115.340;2023-03-14T08:18:07;84555.40;;;1.10
74539;BMP180;66042;51.090;-115.340;2023-03-14T08:20:36;84559.60;;;1.00
74539;BMP180;66042;51.090;-115.340;2023-03-14T08:23:04;84551.00;;;1.00
74539;BMP180;66042;51.090;-115.340;2023-03-14T08:25:31;84546.40;;;0.90
74539;BMP180;66042;51.090;-115.340;2023-03-14T08:27:58;84573.40;;;0.90
74539;BMP180;66042;51.090;-115.340;2023-03-14T08:30:26;84576.60;;;0.90
74539;BMP180;66042;51.090;-115.340;2023-03-14T08:32:53;84602.80;;;0.90
74539;BMP180;66042;51.090;-115.340;2023-03-14T08:35:20;84618.00;;;0.80
74539;BMP180;66042;51.090;-115.340;2023-03-14T08:37:47;84625.40;;;0.80
74539;BMP180;66042;51.090;-115.340;2023-03-14T08:40:14;84646.60;;;0.70
74539;BMP180;66042;51.090;-115.340;2023-03-14T08:42:43;84656.80;;;0.60
74539;BMP180;66042;51.090;-115.340;2023-03-14T08:45:14;84683.80;;;0.50
74539;BMP180;66042;51.090;-115.340;2023-03-14T08:47:41;84688.00;;;0.36
74539;BMP180;66042;51.090;-115.340;2023-03-14T08:50:09;84694.00;;;0.28
74539;BMP180;66042;51.090;-115.340;2023-03-14T08:52:36;84712.00;;;0.10
74539;BMP180;66042;51.090;-115.340;2023-03-14T08:55:08;84732.60;;;0.00
74539;BMP180;66042;51.090;-115.340;2023-03-14T08:57:36;84738.20;;;-0.08
74539;BMP180;66042;51.090;-115.340;2023-03-14T09:00:05;84754.60;;;-0.10
74539;BMP180;66042;51.090;-115.340;2023-03-14T09:02:38;84766.80;;;-0.30
74539;BMP180;66042;51.090;-115.340;2023-03-14T09:05:06;84762.60;;;-0.32
74539;BMP180;66042;51.090;-115.340;2023-03-14T09:07:33;84761.20;;;-0.44
74539;BMP180;66042;51.090;-115.340;2023-03-14T09:10:00;84760.80;;;-0.60
74539;BMP180;66042;51.090;-115.340;2023-03-14T09:12:27;84777.00;;;-0.64
74539;BMP180;66042;51.090;-115.340;2023-03-14T09:14:54;84781.80;;;-0.70
74539;BMP180;66042;51.090;-115.340;2023-03-14T09:17:21;84802.60;;;-0.70
74539;BMP180;66042;51.090;-115.340;2023-03-14T09:19:48;84799.20;;;-0.80
74539;BMP180;66042;51.090;-115.340;2023-03-14T09:22:15;84798.40;;;-0.80
74539;BMP180;66042;51.090;-115.340;2023-03-14T09:24:42;84803.80;;;-0.80
74539;BMP180;66042;51.090;-115.340;2023-03-14T09:27:09;84808.20;;;-0.90
74539;BMP180;66042;51.090;-115.340;2023-03-14T09:29:36;84808.40;;;-0.90
74539;BMP180;66042;51.090;-115.340;2023-03-14T09:32:03;84818.60;;;-0.80
74539;BMP180;66042;51.090;-115.340;2023-03-14T09:34:30;84830.80;;;-0.80
74539;BMP180;66042;51.090;-115.340;2023-03-14T09:36:57;84839.00;;;-0.90
74539;BMP180;66042;51.090;-115.340;2023-03-14T09:39:24;84841.60;;;-0.90
74539;BMP180;66042;51.090;-115.340;2023-03-14T09:41:54;84844.20;;;-0.90
74539;BMP180;66042;51.090;-115.340;2023-03-14T09:44:34;84844.80;;;-0.90
74539;BMP180;66042;51.090;-115.340;2023-03-14T09:47:07;84854.60;;;-1.00
74539;BMP180;66042;51.090;-115.340;2023-03-14T09:49:40;84856.80;;;-1.00
74539;BMP180;66042;51.090;-115.340;2023-03-14T09:52:29;84857.80;;;-1.10
74539;BMP180;66042;51.090;-115.340;2023-03-14T09:55:05;84865.20;;;-1.20
74539;BMP180;66042;51.090;-115.340;2023-03-14T09:57:36;84860.40;;;-1.30
74539;BMP180;66042;51.090;-115.340;2023-03-14T10:02:50;84859.40;;;-1.40
74539;BMP180;66042;51.090;-115.340;2023-03-14T10:05:22;84869.40;;;-1.50
74539;BMP180;66042;51.090;-115.340;2023-03-14T10:07:50;84873.40;;;-1.60
74539;BMP180;66042;51.090;-115.340;2023-03-14T10:10:23;84874.40;;;-1.70
74539;BMP180;66042;51.090;-115.340;2023-03-14T10:13:05;84869.80;;;-1.80
74539;BMP180;66042;51.090;-115.340;2023-03-14T10:15:35;84866.20;;;-1.80
74539;BMP180;66042;51.090;-115.340;2023-03-14T10:18:10;84873.80;;;-1.90
74539;BMP180;66042;51.090;-115.340;2023-03-14T10:20:47;84870.80;;;-1.90
74539;BMP180;66042;51.090;-115.340;2023-03-14T10:25:45;84864.80;;;-1.90
74539;BMP180;66042;51.090;-115.340;2023-03-14T10:31:06;84868.60;;;-2.00
74539;BMP180;66042;51.090;-115.340;2023-03-14T10:33:37;84870.00;;;-2.00
74539;BMP180;66042;51.090;-115.340;2023-03-14T10:36:33;84865.20;;;-2.10
74539;BMP180;66042;51.090;-115.340;2023-03-14T10:39:27;84862.80;;;-2.10
74539;BMP180;66042;51.090;-115.340;2023-03-14T10:42:29;84872.60;;;-2.10
74539;BMP180;66042;51.090;-115.340;2023-03-14T10:45:05;84868.40;;;-2.20
74539;BMP180;66042;51.090;-115.340;2023-03-14T10:47:34;84871.00;;;-2.20
74539;BMP180;66042;51.090;-115.340;2023-03-14T10:50:27;84877.60;;;-2.30
74539;BMP180;66042;51.090;-115.340;2023-03-14T10:52:56;84885.20;;;-2.30
74539;BMP180;66042;51.090;-115.340;2023-03-14T10:55:26;84882.80;;;-2.40
74539;BMP180;66042;51.090;-115.340;2023-03-14T10:57:54;84888.00;;;-2.50
74539;BMP180;66042;51.090;-115.340;2023-03-14T11:00:23;84892.80;;;-2.50
74539;BMP180;66042;51.090;-115.340;2023-03-14T11:11:29;84896.80;;;-2.82
74539;BMP180;66042;51.090;-115.340;2023-03-14T11:17:50;84897.40;;;-2.90
74539;BMP180;66042;51.090;-115.340;2023-03-14T11:28:49;84923.40;;;-2.90
74539;BMP180;66042;51.090;-115.340;2023-03-14T11:31:29;84937.40;;;-2.90
74539;BMP180;66042;51.090;-115.340;2023-03-14T11:34:27;84937.60;;;-2.82
74539;BMP180;66042;51.090;-115.340;2023-03-14T11:37:01;84940.60;;;-2.80
74539;BMP180;66042;51.090;-115.340;2023-03-14T11:39:45;84937.40;;;-2.84
74539;BMP180;66042;51.090;-115.340;2023-03-14T11:42:17;84948.00;;;-2.90
74539;BMP180;66042;51.090;-115.340;2023-03-14T11:44:48;84961.60;;;-2.96
74539;BMP180;66042;51.090;-115.340;2023-03-14T11:52:52;84986.40;;;-3.10
74539;BMP180;66042;51.090;-115.340;2023-03-14T11:55:42;84981.60;;;-3.10
74539;BMP180;66042;51.090;-115.340;2023-03-14T11:58:54;84982.80;;;-3.20
74539;BMP180;66042;51.090;-115.340;2023-03-14T12:01:31;84998.00;;;-3.24
74539;BMP180;66042;51.090;-115.340;2023-03-14T12:04:24;85015.00;;;-3.30
74539;BMP180;66042;51.090;-115.340;2023-03-14T12:06:56;85015.20;;;-3.30
74539;BMP180;66042;51.090;-115.340;2023-03-14T12:09:25;85015.80;;;-3.46
74539;BMP180;66042;51.090;-115.340;2023-03-14T12:11:59;85024.80;;;-3.48
74539;BMP180;66042;51.090;-115.340;2023-03-14T12:14:30;85037.60;;;-3.50
74539;BMP180;66042;51.090;-115.340;2023-03-14T12:17:20;85028.40;;;-3.60
74539;BMP180;66042;51.090;-115.340;2023-03-14T12:19:59;85034.60;;;-3.60
74539;BMP180;66042;51.090;-115.340;2023-03-14T12:22:41;85033.80;;;-3.68
74539;BMP180;66042;51.090;-115.340;2023-03-14T12:25:24;85038.20;;;-3.60
74539;BMP180;66042;51.090;-115.340;2023-03-14T12:33:20;85065.00;;;-3.58
74539;BMP180;66042;51.090;-115.340;2023-03-14T12:35:59;85071.20;;;-3.50
74539;BMP180;66042;51.090;-115.340;2023-03-14T12:38:51;85065.20;;;-3.46
74539;BMP180;66042;51.090;-115.340;2023-03-14T12:41:40;85084.20;;;-3.40
74539;BMP180;66042;51.090;-115.340;2023-03-14T12:47:00;85093.80;;;-3.50
74539;BMP180;66042;51.090;-115.340;2023-03-14T12:49:41;85100.40;;;-3.50
74539;BMP180;66042;51.090;-115.340;2023-03-14T12:52:19;85119.60;;;-3.50
74539;BMP180;66042;51.090;-115.340;2023-03-14T12:55:21;85125.20;;;-3.50
74539;BMP180;66042;51.090;-115.340;2023-03-14T13:00:43;85139.60;;;-3.60
74539;BMP180;66042;51.090;-115.340;2023-03-14T13:03:20;85132.80;;;-3.60
74539;BMP180;66042;51.090;-115.340;2023-03-14T13:06:00;85120.20;;;-3.60
74539;BMP180;66042;51.090;-115.340;2023-03-14T13:08:40;85138.40;;;-3.64
74539;BMP180;66042;51.090;-115.340;2023-03-14T13:11:19;85138.80;;;-3.70
74539;BMP180;66042;51.090;-115.340;2023-03-14T13:13:58;85149.80;;;-3.74
74539;BMP180;66042;51.090;-115.340;2023-03-14T13:16:27;85150.00;;;-3.80
74539;BMP180;66042;51.090;-115.340;2023-03-14T13:19:09;85160.40;;;-3.80
74539;BMP180;66042;51.090;-115.340;2023-03-14T13:21:40;85176.60;;;-3.80
74539;BMP180;66042;51.090;-115.340;2023-03-14T13:24:28;85189.60;;;-3.80
74539;BMP180;66042;51.090;-115.340;2023-03-14T13:26:58;85183.60;;;-3.90
74539;BMP180;66042;51.090;-115.340;2023-03-14T13:29:32;85177.60;;;-3.84
74539;BMP180;66042;51.090;-115.340;2023-03-14T13:32:12;85184.00;;;-3.80
74539;BMP180;66042;51.090;-115.340;2023-03-14T13:34:41;85190.00;;;-3.72
74539;BMP180;66042;51.090;-115.340;2023-03-14T13:37:21;85191.80;;;-3.70
74539;BMP180;66042;51.090;-115.340;2023-03-14T13:39:57;85186.00;;;-3.70
74539;BMP180;66042;51.090;-115.340;2023-03-14T13:42:29;85187.00;;;-3.70
74539;BMP180;66042;51.090;-115.340;2023-03-14T13:44:57;85188.00;;;-3.70
74539;BMP180;66042;51.090;-115.340;2023-03-14T13:47:26;85197.20;;;-3.70
74539;BMP180;66042;51.090;-115.340;2023-03-14T13:49:53;85218.40;;;-3.70
74539;BMP180;66042;51.090;-115.340;2023-03-14T13:52:34;85245.00;;;-3.70
74539;BMP180;66042;51.090;-115.340;2023-03-14T13:55:04;85258.20;;;-3.66
74539;BMP180;66042;51.090;-115.340;2023-03-14T13:57:52;85272.20;;;-3.70
74539;BMP180;66042;51.090;-115.340;2023-03-14T14:00:25;85275.60;;;-3.70
74539;BMP180;66042;51.090;-115.340;2023-03-14T14:02:59;85275.00;;;-3.70
74539;BMP180;66042;51.090;-115.340;2023-03-14T14:05:28;85274.60;;;-3.70
74539;BMP180;66042;51.090;-115.340;2023-03-14T14:07:56;85280.00;;;-3.70
74539;BMP180;66042;51.090;-115.340;2023-03-14T14:10:23;85285.40;;;-3.70
74539;BMP180;66042;51.090;-115.340;2023-03-14T14:13:03;85281.20;;;-3.80
74539;BMP180;66042;51.090;-115.340;2023-03-14T14:15:35;85284.20;;;-3.80
74539;BMP180;66042;51.090;-115.340;2023-03-14T14:18:11;85287.20;;;-3.84
74539;BMP180;66042;51.090;-115.340;2023-03-14T14:20:45;85299.60;;;-3.80
74539;BMP180;66042;51.090;-115.340;2023-03-14T14:23:27;85293.80;;;-3.78
74539;BMP180;66042;51.090;-115.340;2023-03-14T14:25:56;85311.80;;;-3.70
74539;BMP180;66042;51.090;-115.340;2023-03-14T14:28:34;85301.60;;;-3.60
74539;BMP180;66042;51.090;-115.340;2023-03-14T14:33:45;85310.60;;;-3.50
74539;BMP180;66042;51.090;-115.340;2023-03-14T14:39:05;85308.80;;;-3.40
74539;BMP180;66042;51.090;-115.340;2023-03-14T14:41:41;85316.80;;;-3.42
74539;BMP180;66042;51.090;-115.340;2023-03-14T14:44:13;85321.80;;;-3.50
74539;BMP180;66042;51.090;-115.340;2023-03-14T14:46:44;85312.80;;;-3.48
74539;BMP180;66042;51.090;-115.340;2023-03-14T14:49:14;85314.00;;;-3.42
74539;BMP180;66042;51.090;-115.340;2023-03-14T14:51:51;85322.00;;;-3.50
74539;BMP180;66042;51.090;-115.340;2023-03-14T14:54:52;85321.20;;;-3.50
74539;BMP180;66042;51.090;-115.340;2023-03-14T14:57:38;85322.20;;;-3.56
74539;BMP180;66042;51.090;-115.340;2023-03-14T15:00:17;85334.20;;;-3.50
74539;BMP180;66042;51.090;-115.340;2023-03-14T15:02:49;85326.80;;;-3.54